sensor_id;sensor_type;location;lat;lon;timestamp;P1;P2;P0
79537;PMS5003;68989;52.032;5.152;2023-08-06T00:01:25;7;7;
79537;PMS5003;68989;52.032;5.152;2023-08-06T00:03:52;8;8;
79537;PMS5003;68989;52.032;5.152;2023-08-06T00:06:18;7;6;
79537;PMS5003;68989;52.032;5.152;2023-08-06T00:08:45;10;9;
79537;PMS5003;68989;52.032;5.152;2023-08-06T00:11:12;8;8;
79537;PMS5003;68989;52.032;5.152;2023-08-06T00:13:40;7;7;
79537;PMS5003;68989;52.032;5.152;2023-08-06T00:16:08;7;7;
79537;PMS5003;68989;52.032;5.152;2023-08-06T00:18:37;9;9;
79537;PMS5003;68989;52.032;5.152;2023-08-06T00:21:04;7;7;
79537;PMS5003;68989;52.032;5.152;2023-08-06T00:23:31;8;8;
79537;PMS5003;68989;52.032;5.152;2023-08-06T00:25:59;8;8;
79537;PMS5003;68989;52.032;5.152;2023-08-06T00:28:26;11;8;
79537;PMS5003;68989;52.032;5.152;2023-08-06T00:30:53;8;8;
79537;PMS5003;68989;52.032;5.152;2023-08-06T00:33:20;10;10;
79537;PMS5003;68989;52.032;5.152;2023-08-06T00:35:47;9;9;
79537;PMS5003;68989;52.032;5.152;2023-08-06T00:38:14;10;10;
79537;PMS5003;68989;52.032;5.152;2023-08-06T00:40:41;8;7;
79537;PMS5003;68989;52.032;5.152;2023-08-06T00:43:08;8;8;
79537;PMS5003;68989;52.032;5.152;2023-08-06T00:45:35;10;10;
79537;PMS5003;68989;52.032;5.152;2023-08-06T00:48:03;9;9;
79537;PMS5003;68989;52.032;5.152;2023-08-06T00:50:31;8;8;
79537;PMS5003;68989;52.032;5.152;2023-08-06T00:52:58;7;7;
79537;PMS5003;68989;52.032;5.152;2023-08-06T00:55:26;9;9;
79537;PMS5003;68989;52.032;5.152;2023-08-06T00:57:53;7;6;
79537;PMS5003;68989;52.032;5.152;2023-08-06T01:02:26;7;7;
79537;PMS5003;68989;52.032;5.152;2023-08-06T01:04:53;6;6;
79537;PMS5003;68989;52.032;5.152;2023-08-06T01:07:24;9;9;
79537;PMS5003;68989;52.032;5.152;2023-08-06T01:10:03;8;8;
79537;PMS5003;68989;52.032;5.152;2023-08-06T01:12:48;8;8;
79537;PMS5003;68989;52.032;5.152;2023-08-06T01:15:23;10;8;
79537;PMS5003;68989;52.032;5.152;2023-08-06T01:17:54;9;8;
79537;PMS5003;68989;52.032;5.152;2023-08-06T01:20:21;10;9;
79537;PMS5003;68989;52.032;5.152;2023-08-06T01:22:49;9;7;
79537;PMS5003;68989;52.032;5.152;2023-08-06T01:25:15;7;7;
79537;PMS5003;68989;52.032;5.152;2023-08-06T01:27:44;7;6;
79537;PMS5003;68989;52.032;5.152;2023-08-06T01:30:16;9;9;
79537;PMS5003;68989;52.032;5.152;2023-08-06T01:32:46;7;7;
79537;PMS5003;68989;52.032;5.152;2023-08-06T01:35:17;10;10;
79537;PMS5003;68989;52.032;5.152;2023-08-06T01:37:46;8;8;
79537;PMS5003;68989;52.032;5.152;2023-08-06T01:40:13;9;9;
79537;PMS5003;68989;52.032;5.152;2023-08-06T01:42:40;8;8;
79537;PMS5003;68989;52.032;5.152;2023-08-06T01:45:07;7;7;
79537;PMS5003;68989;52.032;5.152;2023-08-06T01:47:35;7;7;
79537;PMS5003;68989;52.032;5.152;2023-08-06T01:50:02;8;8;
79537;PMS5003;68989;52.032;5.152;2023-08-06T01:52:30;8;8;
79537;PMS5003;68989;52.032;5.152;2023-08-06T01:54:56;9;9;
79537;PMS5003;68989;52.032;5.152;2023-08-06T01:57:24;10;10;
79537;PMS5003;68989;52.032;5.152;2023-08-06T01:59:51;7;7;
79537;PMS5003;68989;52.032;5.152;2023-08-06T02:02:17;11;9;
79537;PMS5003;68989;52.032;5.152;2023-08-06T02:04:44;6;6;
79537;PMS5003;68989;52.032;5.152;2023-08-06T02:07:11;5;5;
79537;PMS5003;68989;52.032;5.152;2023-08-06T02:09:38;7;7;
79537;PMS5003;68989;52.032;5.152;2023-08-06T02:12:05;9;5;
79537;PMS5003;68989;52.032;5.152;2023-08-06T02:14:32;7;7;
79537;PMS5003;68989;52.032;5.152;2023-08-06T02:17:00;7;7;
79537;PMS5003;68989;52.032;5.152;2023-08-06T02:19:26;9;9;
79537;PMS5003;68989;52.032;5.152;2023-08-06T02:21:55;5;5;
79537;PMS5003;68989;52.032;5.152;2023-08-06T02:24:22;7;7;
79537;PMS5003;68989;52.032;5.152;2023-08-06T02:26:49;10;10;
79537;PMS5003;68989;52.032;5.152;2023-08-06T02:29:16;10;10;
79537;PMS5003;68989;52.032;5.152;2023-08-06T02:31:44;7;7;
79537;PMS5003;68989;52.032;5.152;2023-08-06T02:34:11;8;8;
79537;PMS5003;68989;52.032;5.152;2023-08-06T02:36:37;7;7;
79537;PMS5003;68989;52.032;5.152;2023-08-06T02:39:04;9;7;
79537;PMS5003;68989;52.032;5.152;2023-08-06T02:41:31;9;9;
79537;PMS5003;68989;52.032;5.152;2023-08-06T02:43:58;9;9;
79537;PMS5003;68989;52.032;5.152;2023-08-06T02:46:24;10;10;
79537;PMS5003;68989;52.032;5.152;2023-08-06T02:48:51;9;9;
79537;PMS5003;68989;52.032;5.152;2023-08-06T02:51:18;11;9;
79537;PMS5003;68989;52.032;5.152;2023-08-06T02:53:45;8;8;
79537;PMS5003;68989;52.032;5.152;2023-08-06T02:56:13;9;9;
79537;PMS5003;68989;52.032;5.152;2023-08-06T02:58:40;7;7;
79537;PMS5003;68989;52.032;5.152;2023-08-06T03:01:07;8;8;
79537;PMS5003;68989;52.032;5.152;2023-08-06T03:03:34;11;9;
79537;PMS5003;68989;52.032;5.152;2023-08-06T03:06:01;7;7;
79537;PMS5003;68989;52.032;5.152;2023-08-06T03:08:28;10;9;
79537;PMS5003;68989;52.032;5.152;2023-08-06T03:10:54;9;9;
79537;PMS5003;68989;52.032;5.152;2023-08-06T03:13:21;7;7;
79537;PMS5003;68989;52.032;5.152;2023-08-06T03:15:51;7;7;
79537;PMS5003;68989;52.032;5.152;2023-08-06T03:18:19;8;8;
79537;PMS5003;68989;52.032;5.152;2023-08-06T03:20:46;10;10;
79537;PMS5003;68989;52.032;5.152;2023-08-06T03:23:13;9;9;
79537;PMS5003;68989;52.032;5.152;2023-08-06T03:25:40;8;8;
79537;PMS5003;68989;52.032;5.152;2023-08-06T03:28:07;7;7;
79537;PMS5003;68989;52.032;5.152;2023-08-06T03:30:34;7;7;
79537;PMS5003;68989;52.032;5.152;2023-08-06T03:33:01;9;9;
79537;PMS5003;68989;52.032;5.152;2023-08-06T03:35:27;10;9;
79537;PMS5003;68989;52.032;5.152;2023-08-06T03:37:54;9;9;
79537;PMS5003;68989;52.032;5.152;2023-08-06T03:40:21;9;9;
79537;PMS5003;68989;52.032;5.152;2023-08-06T03:42:48;8;8;
79537;PMS5003;68989;52.032;5.152;2023-08-06T03:45:15;9;8;
79537;PMS5003;68989;52.032;5.152;2023-08-06T03:47:41;9;8;
79537;PMS5003;68989;52.032;5.152;2023-08-06T03:50:08;7;7;
79537;PMS5003;68989;52.032;5.152;2023-08-06T03:52:36;9;9;
79537;PMS5003;68989;52.032;5.152;2023-08-06T03:55:03;7;7;
79537;PMS5003;68989;52.032;5.152;2023-08-06T03:57:30;9;9;
79537;PMS5003;68989;52.032;5.152;2023-08-06T03:59:57;8;8;
79537;PMS5003;68989;52.032;5.152;2023-08-06T04:02:24;8;8;
79537;PMS5003;68989;52.032;5.152;2023-08-06T04:04:51;9;9;
79537;PMS5003;68989;52.032;5.152;2023-08-06T04:07:17;9;9;
79537;PMS5003;68989;52.032;5.152;2023-08-06T04:09:52;10;10;
79537;PMS5003;68989;52.032;5.152;2023-08-06T04:12:20;12;9;
79537;PMS5003;68989;52.032;5.152;2023-08-06T04:14:47;9;9;
79537;PMS5003;68989;52.032;5.152;2023-08-06T04:17:15;12;10;
79537;PMS5003;68989;52.032;5.152;2023-08-06T04:19:42;10;10;
79537;PMS5003;68989;52.032;5.152;2023-08-06T04:22:09;7;7;
79537;PMS5003;68989;52.032;5.152;2023-08-06T04:24:36;8;8;
79537;PMS5003;68989;52.032;5.152;2023-08-06T04:27:03;9;9;
79537;PMS5003;68989;52.032;5.152;2023-08-06T04:29:30;10;9;
79537;PMS5003;68989;52.032;5.152;2023-08-06T04:31:58;8;8;
79537;PMS5003;68989;52.032;5.152;2023-08-06T04:34:25;8;8;
79537;PMS5003;68989;52.032;5.152;2023-08-06T04:36:51;7;7;
79537;PMS5003;68989;52.032;5.152;2023-08-06T04:39:18;10;9;
79537;PMS5003;68989;52.032;5.152;2023-08-06T04:41:45;11;10;
79537;PMS5003;68989;52.032;5.152;2023-08-06T04:44:12;11;11;
79537;PMS5003;68989;52.032;5.152;2023-08-06T04:46:40;8;8;
79537;PMS5003;68989;52.032;5.152;2023-08-06T04:49:07;10;10;
79537;PMS5003;68989;52.032;5.152;2023-08-06T04:51:35;8;8;
79537;PMS5003;68989;52.032;5.152;2023-08-06T04:54:02;12;11;
79537;PMS5003;68989;52.032;5.152;2023-08-06T04:56:29;13;12;
79537;PMS5003;68989;52.032;5.152;2023-08-06T04:58:55;9;9;
79537;PMS5003;68989;52.032;5.152;2023-08-06T05:01:23;10;10;
79537;PMS5003;68989;52.032;5.152;2023-08-06T05:03:50;13;12;
79537;PMS5003;68989;52.032;5.152;2023-08-06T05:06:17;13;12;
79537;PMS5003;68989;52.032;5.152;2023-08-06T05:08:43;11;10;
79537;PMS5003;68989;52.032;5.152;2023-08-06T05:11:10;11;11;
79537;PMS5003;68989;52.032;5.152;2023-08-06T05:13:37;11;11;
79537;PMS5003;68989;52.032;5.152;2023-08-06T05:16:04;11;11;
79537;PMS5003;68989;52.032;5.152;2023-08-06T05:18:31;11;10;
79537;PMS5003;68989;52.032;5.152;2023-08-06T05:20:57;15;12;
79537;PMS5003;68989;52.032;5.152;2023-08-06T05:23:24;12;12;
79537;PMS5003;68989;52.032;5.152;2023-08-06T05:25:51;9;9;
79537;PMS5003;68989;52.032;5.152;2023-08-06T05:28:18;12;12;
79537;PMS5003;68989;52.032;5.152;2023-08-06T05:30:46;13;13;
79537;PMS5003;68989;52.032;5.152;2023-08-06T05:33:13;11;11;
79537;PMS5003;68989;52.032;5.152;2023-08-06T05:35:40;12;12;
79537;PMS5003;68989;52.032;5.152;2023-08-06T05:38:07;11;11;
79537;PMS5003;68989;52.032;5.152;2023-08-06T05:40:34;10;10;
79537;PMS5003;68989;52.032;5.152;2023-08-06T05:43:01;11;11;
79537;PMS5003;68989;52.032;5.152;2023-08-06T05:45:28;10;10;
79537;PMS5003;68989;52.032;5.152;2023-08-06T05:47:55;15;14;
79537;PMS5003;68989;52.032;5.152;2023-08-06T05:50:22;15;12;
79537;PMS5003;68989;52.032;5.152;2023-08-06T05:52:49;11;11;
79537;PMS5003;68989;52.032;5.152;2023-08-06T05:55:16;11;11;
79537;PMS5003;68989;52.032;5.152;2023-08-06T05:57:42;10;10;
79537;PMS5003;68989;52.032;5.152;2023-08-06T06:00:10;12;12;
79537;PMS5003;68989;52.032;5.152;2023-08-06T06:02:38;13;13;
79537;PMS5003;68989;52.032;5.152;2023-08-06T06:05:04;9;9;
79537;PMS5003;68989;52.032;5.152;2023-08-06T06:07:32;13;10;
79537;PMS5003;68989;52.032;5.152;2023-08-06T06:09:59;12;11;
79537;PMS5003;68989;52.032;5.152;2023-08-06T06:12:26;9;9;
79537;PMS5003;68989;52.032;5.152;2023-08-06T06:14:53;10;9;
79537;PMS5003;68989;52.032;5.152;2023-08-06T06:17:21;8;8;
79537;PMS5003;68989;52.032;5.152;2023-08-06T06:19:48;9;7;
79537;PMS5003;68989;52.032;5.152;2023-08-06T06:22:15;8;8;
79537;PMS5003;68989;52.032;5.152;2023-08-06T06:24:41;6;6;
79537;PMS5003;68989;52.032;5.152;2023-08-06T06:27:08;7;7;
79537;PMS5003;68989;52.032;5.152;2023-08-06T06:29:35;3;3;
79537;PMS5003;68989;52.032;5.152;2023-08-06T06:32:02;7;5;
79537;PMS5003;68989;52.032;5.152;2023-08-06T06:34:29;4;4;
79537;PMS5003;68989;52.032;5.152;2023-08-06T06:36:56;6;5;
79537;PMS5003;68989;52.032;5.152;2023-08-06T06:39:23;4;4;
79537;PMS5003;68989;52.032;5.152;2023-08-06T06:41:49;4;4;
79537;PMS5003;68989;52.032;5.152;2023-08-06T06:44:16;5;5;
79537;PMS5003;68989;52.032;5.152;2023-08-06T06:46:43;3;3;
79537;PMS5003;68989;52.032;5.152;2023-08-06T06:49:10;4;4;
79537;PMS5003;68989;52.032;5.152;2023-08-06T06:51:37;4;4;
79537;PMS5003;68989;52.032;5.152;2023-08-06T06:54:03;4;3;
79537;PMS5003;68989;52.032;5.152;2023-08-06T06:56:30;3;3;
79537;PMS5003;68989;52.032;5.152;2023-08-06T06:58:57;2;2;
79537;PMS5003;68989;52.032;5.152;2023-08-06T07:01:24;4;4;
79537;PMS5003;68989;52.032;5.152;2023-08-06T07:03:50;5;5;
79537;PMS5003;68989;52.032;5.152;2023-08-06T07:06:17;4;4;
79537;PMS5003;68989;52.032;5.152;2023-08-06T07:08:44;4;4;
79537;PMS5003;68989;52.032;5.152;2023-08-06T07:11:11;5;5;
79537;PMS5003;68989;52.032;5.152;2023-08-06T07:13:37;6;5;
79537;PMS5003;68989;52.032;5.152;2023-08-06T07:16:04;4;4;
79537;PMS5003;68989;52.032;5.152;2023-08-06T07:18:31;6;4;
79537;PMS5003;68989;52.032;5.152;2023-08-06T07:20:58;5;5;
79537;PMS5003;68989;52.032;5.152;2023-08-06T07:23:25;5;5;
79537;PMS5003;68989;52.032;5.152;2023-08-06T07:25:52;6;6;
79537;PMS5003;68989;52.032;5.152;2023-08-06T07:28:20;6;6;
79537;PMS5003;68989;52.032;5.152;2023-08-06T07:30:46;5;5;
79537;PMS5003;68989;52.032;5.152;2023-08-06T07:33:13;6;6;
79537;PMS5003;68989;52.032;5.152;2023-08-06T07:35:40;6;6;
79537;PMS5003;68989;52.032;5.152;2023-08-06T07:38:08;5;5;
79537;PMS5003;68989;52.032;5.152;2023-08-06T07:40:35;7;7;
79537;PMS5003;68989;52.032;5.152;2023-08-06T07:43:02;6;6;
79537;PMS5003;68989;52.032;5.152;2023-08-06T07:45:32;6;6;
79537;PMS5003;68989;52.032;5.152;2023-08-06T07:48:00;7;7;
79537;PMS5003;68989;52.032;5.152;2023-08-06T07:50:27;8;8;
79537;PMS5003;68989;52.032;5.152;2023-08-06T07:52:54;6;5;
79537;PMS5003;68989;52.032;5.152;2023-08-06T07:55:22;6;5;
79537;PMS5003;68989;52.032;5.152;2023-08-06T07:57:49;5;5;
79537;PMS5003;68989;52.032;5.152;2023-08-06T08:00:16;6;6;
79537;PMS5003;68989;52.032;5.152;2023-08-06T08:02:43;7;7;
79537;PMS5003;68989;52.032;5.152;2023-08-06T08:05:09;6;6;
79537;PMS5003;68989;52.032;5.152;2023-08-06T08:07:36;5;5;
79537;PMS5003;68989;52.032;5.152;2023-08-06T08:10:04;6;5;
79537;PMS5003;68989;52.032;5.152;2023-08-06T08:12:32;5;5;
79537;PMS5003;68989;52.032;5.152;2023-08-06T08:14:59;7;7;
79537;PMS5003;68989;52.032;5.152;2023-08-06T08:17:26;7;7;
79537;PMS5003;68989;52.032;5.152;2023-08-06T08:19:53;5;5;
79537;PMS5003;68989;52.032;5.152;2023-08-06T08:22:19;6;6;
79537;PMS5003;68989;52.032;5.152;2023-08-06T08:24:46;8;7;
79537;PMS5003;68989;52.032;5.152;2023-08-06T08:27:13;7;7;
79537;PMS5003;68989;52.032;5.152;2023-08-06T08:29:40;7;7;
79537;PMS5003;68989;52.032;5.152;2023-08-06T08:32:07;7;7;
79537;PMS5003;68989;52.032;5.152;2023-08-06T08:34:34;7;7;
79537;PMS5003;68989;52.032;5.152;2023-08-06T08:37:01;9;8;
79537;PMS5003;68989;52.032;5.152;2023-08-06T08:39:27;6;6;
79537;PMS5003;68989;52.032;5.152;2023-08-06T08:41:54;5;5;
79537;PMS5003;68989;52.032;5.152;2023-08-06T08:44:21;8;8;
79537;PMS5003;68989;52.032;5.152;2023-08-06T08:46:48;6;6;
79537;PMS5003;68989;52.032;5.152;2023-08-06T08:49:15;10;10;
79537;PMS5003;68989;52.032;5.152;2023-08-06T08:51:43;6;6;
79537;PMS5003;68989;52.032;5.152;2023-08-06T08:54:12;9;8;
79537;PMS5003;68989;52.032;5.152;2023-08-06T08:56:41;6;6;
79537;PMS5003;68989;52.032;5.152;2023-08-06T08:59:09;10;8;
79537;PMS5003;68989;52.032;5.152;2023-08-06T09:01:37;6;6;
79537;PMS5003;68989;52.032;5.152;2023-08-06T09:04:06;10;8;
79537;PMS5003;68989;52.032;5.152;2023-08-06T09:06:34;6;6;
79537;PMS5003;68989;52.032;5.152;2023-08-06T09:09:05;7;7;
79537;PMS5003;68989;52.032;5.152;2023-08-06T09:11:36;7;5;
79537;PMS5003;68989;52.032;5.152;2023-08-06T09:14:09;6;6;
79537;PMS5003;68989;52.032;5.152;2023-08-06T09:16:37;7;7;
79537;PMS5003;68989;52.032;5.152;2023-08-06T09:19:06;7;7;
79537;PMS5003;68989;52.032;5.152;2023-08-06T09:21:35;6;6;
79537;PMS5003;68989;52.032;5.152;2023-08-06T09:24:06;8;8;
79537;PMS5003;68989;52.032;5.152;2023-08-06T09:26:36;7;6;
79537;PMS5003;68989;52.032;5.152;2023-08-06T09:29:04;5;5;
79537;PMS5003;68989;52.032;5.152;2023-08-06T09:31:33;6;6;
79537;PMS5003;68989;52.032;5.152;2023-08-06T09:34:10;10;8;
79537;PMS5003;68989;52.032;5.152;2023-08-06T09:36:39;6;6;
79537;PMS5003;68989;52.032;5.152;2023-08-06T09:39:12;6;5;
79537;PMS5003;68989;52.032;5.152;2023-08-06T09:41:40;6;6;
79537;PMS5003;68989;52.032;5.152;2023-08-06T09:44:15;7;7;
79537;PMS5003;68989;52.032;5.152;2023-08-06T09:46:42;8;6;
79537;PMS5003;68989;52.032;5.152;2023-08-06T09:49:13;6;6;
79537;PMS5003;68989;52.032;5.152;2023-08-06T09:51:40;5;4;
79537;PMS5003;68989;52.032;5.152;2023-08-06T09:54:08;6;4;
79537;PMS5003;68989;52.032;5.152;2023-08-06T09:56:36;7;6;
79537;PMS5003;68989;52.032;5.152;2023-08-06T09:59:04;7;5;
79537;PMS5003;68989;52.032;5.152;2023-08-06T10:01:32;6;6;
79537;PMS5003;68989;52.032;5.152;2023-08-06T10:04:00;4;4;
79537;PMS5003;68989;52.032;5.152;2023-08-06T10:06:31;3;3;
79537;PMS5003;68989;52.032;5.152;2023-08-06T10:09:01;4;4;
79537;PMS5003;68989;52.032;5.152;2023-08-06T10:11:29;4;4;
79537;PMS5003;68989;52.032;5.152;2023-08-06T10:13:58;4;3;
79537;PMS5003;68989;52.032;5.152;2023-08-06T10:16:33;3;3;
79537;PMS5003;68989;52.032;5.152;2023-08-06T10:19:01;4;4;
79537;PMS5003;68989;52.032;5.152;2023-08-06T10:21:31;3;3;
79537;PMS5003;68989;52.032;5.152;2023-08-06T10:23:57;3;3;
79537;PMS5003;68989;52.032;5.152;2023-08-06T10:26:25;7;7;
79537;PMS5003;68989;52.032;5.152;2023-08-06T10:28:52;2;2;
79537;PMS5003;68989;52.032;5.152;2023-08-06T10:31:20;2;2;
79537;PMS5003;68989;52.032;5.152;2023-08-06T10:34:19;3;3;
79537;PMS5003;68989;52.032;5.152;2023-08-06T10:36:47;4;3;
79537;PMS5003;68989;52.032;5.152;2023-08-06T10:39:15;5;2;
79537;PMS5003;68989;52.032;5.152;2023-08-06T10:41:42;1;1;
79537;PMS5003;68989;52.032;5.152;2023-08-06T10:44:10;2;2;
79537;PMS5003;68989;52.032;5.152;2023-08-06T10:46:38;2;2;
79537;PMS5003;68989;52.032;5.152;2023-08-06T10:49:04;2;2;
79537;PMS5003;68989;52.032;5.152;2023-08-06T10:51:31;2;2;
79537;PMS5003;68989;52.032;5.152;2023-08-06T10:53:58;4;2;
79537;PMS5003;68989;52.032;5.152;2023-08-06T10:56:25;2;2;
79537;PMS5003;68989;52.032;5.152;2023-08-06T10:58:53;2;2;
79537;PMS5003;68989;52.032;5.152;2023-08-06T11:01:22;3;3;
79537;PMS5003;68989;52.032;5.152;2023-08-06T11:03:49;1;1;
79537;PMS5003;68989;52.032;5.152;2023-08-06T11:06:17;2;2;
79537;PMS5003;68989;52.032;5.152;2023-08-06T11:08:47;1;1;
79537;PMS5003;68989;52.032;5.152;2023-08-06T11:11:15;2;2;
79537;PMS5003;68989;52.032;5.152;2023-08-06T11:13:43;1;1;
79537;PMS5003;68989;52.032;5.152;2023-08-06T11:16:12;6;3;
79537;PMS5003;68989;52.032;5.152;2023-08-06T11:18:39;3;3;
79537;PMS5003;68989;52.032;5.152;2023-08-06T11:21:08;3;3;
79537;PMS5003;68989;52.032;5.152;2023-08-06T11:23:35;2;2;
79537;PMS5003;68989;52.032;5.152;2023-08-06T11:26:03;3;3;
79537;PMS5003;68989;52.032;5.152;2023-08-06T11:28:29;3;3;
79537;PMS5003;68989;52.032;5.152;2023-08-06T11:30:57;2;2;
79537;PMS5003;68989;52.032;5.152;2023-08-06T11:33:25;2;2;
79537;PMS5003;68989;52.032;5.152;2023-08-06T11:35:54;3;3;
79537;PMS5003;68989;52.032;5.152;2023-08-06T11:38:24;2;2;
79537;PMS5003;68989;52.032;5.152;2023-08-06T11:40:52;5;3;
79537;PMS5003;68989;52.032;5.152;2023-08-06T11:43:22;3;3;
79537;PMS5003;68989;52.032;5.152;2023-08-06T11:45:51;2;2;
79537;PMS5003;68989;52.032;5.152;2023-08-06T11:48:21;3;3;
79537;PMS5003;68989;52.032;5.152;2023-08-06T11:50:53;3;3;
79537;PMS5003;68989;52.032;5.152;2023-08-06T11:53:21;3;0;
79537;PMS5003;68989;52.032;5.152;2023-08-06T11:55:48;3;3;
79537;PMS5003;68989;52.032;5.152;2023-08-06T11:58:16;3;3;
79537;PMS5003;68989;52.032;5.152;2023-08-06T12:00:44;2;2;
79537;PMS5003;68989;52.032;5.152;2023-08-06T12:03:11;2;2;
79537;PMS5003;68989;52.032;5.152;2023-08-06T12:05:38;3;3;
79537;PMS5003;68989;52.032;5.152;2023-08-06T12:08:05;3;2;
79537;PMS5003;68989;52.032;5.152;2023-08-06T12:10:32;1;1;
79537;PMS5003;68989;52.032;5.152;2023-08-06T12:12:59;5;4;
79537;PMS5003;68989;52.032;5.152;2023-08-06T12:15:27;2;2;
79537;PMS5003;68989;52.032;5.152;2023-08-06T12:17:54;0;0;
79537;PMS5003;68989;52.032;5.152;2023-08-06T12:20:21;2;2;
79537;PMS5003;68989;52.032;5.152;2023-08-06T12:22:49;3;3;
79537;PMS5003;68989;52.032;5.152;2023-08-06T12:25:16;1;1;
79537;PMS5003;68989;52.032;5.152;2023-08-06T12:27:44;1;1;
79537;PMS5003;68989;52.032;5.152;2023-08-06T12:30:11;2;2;
79537;PMS5003;68989;52.032;5.152;2023-08-06T12:32:38;3;2;
79537;PMS5003;68989;52.032;5.152;2023-08-06T12:35:06;2;2;
79537;PMS5003;68989;52.032;5.152;2023-08-06T12:37:34;2;2;
79537;PMS5003;68989;52.032;5.152;2023-08-06T12:40:01;4;2;
79537;PMS5003;68989;52.032;5.152;2023-08-06T12:42:29;2;2;
79537;PMS5003;68989;52.032;5.152;2023-08-06T12:44:56;3;3;
79537;PMS5003;68989;52.032;5.152;2023-08-06T12:47:24;1;1;
79537;PMS5003;68989;52.032;5.152;2023-08-06T12:49:50;1;1;
79537;PMS5003;68989;52.032;5.152;2023-08-06T12:52:17;1;1;
79537;PMS5003;68989;52.032;5.152;2023-08-06T12:54:45;2;1;
79537;PMS5003;68989;52.032;5.152;2023-08-06T12:57:11;2;1;
79537;PMS5003;68989;52.032;5.152;2023-08-06T12:59:38;2;2;
79537;PMS5003;68989;52.032;5.152;2023-08-06T13:02:06;1;1;
79537;PMS5003;68989;52.032;5.152;2023-08-06T13:04:33;1;1;
79537;PMS5003;68989;52.032;5.152;2023-08-06T13:06:59;1;1;
79537;PMS5003;68989;52.032;5.152;2023-08-06T13:09:27;0;0;
79537;PMS5003;68989;52.032;5.152;2023-08-06T13:11:54;2;2;
79537;PMS5003;68989;52.032;5.152;2023-08-06T13:14:21;1;1;
79537;PMS5003;68989;52.032;5.152;2023-08-06T13:16:48;1;1;
79537;PMS5003;68989;52.032;5.152;2023-08-06T13:19:15;1;1;
79537;PMS5003;68989;52.032;5.152;2023-08-06T13:21:59;2;2;
79537;PMS5003;68989;52.032;5.152;2023-08-06T13:24:28;2;2;
79537;PMS5003;68989;52.032;5.152;2023-08-06T13:26:56;0;0;
79537;PMS5003;68989;52.032;5.152;2023-08-06T13:29:24;1;1;
79537;PMS5003;68989;52.032;5.152;2023-08-06T13:31:52;1;1;
79537;PMS5003;68989;52.032;5.152;2023-08-06T13:34:19;1;1;
79537;PMS5003;68989;52.032;5.152;2023-08-06T13:36:46;2;2;
79537;PMS5003;68989;52.032;5.152;2023-08-06T13:39:13;2;2;
79537;PMS5003;68989;52.032;5.152;2023-08-06T13:41:41;1;1;
79537;PMS5003;68989;52.032;5.152;2023-08-06T13:44:08;2;2;
79537;PMS5003;68989;52.032;5.152;2023-08-06T13:46:35;2;2;
79537;PMS5003;68989;52.032;5.152;2023-08-06T13:49:02;1;1;
79537;PMS5003;68989;52.032;5.152;2023-08-06T13:51:29;1;1;
79537;PMS5003;68989;52.032;5.152;2023-08-06T13:53:56;2;2;
79537;PMS5003;68989;52.032;5.152;2023-08-06T13:56:23;2;2;
79537;PMS5003;68989;52.032;5.152;2023-08-06T13:58:49;2;2;
79537;PMS5003;68989;52.032;5.152;2023-08-06T14:01:17;3;1;
79537;PMS5003;68989;52.032;5.152;2023-08-06T14:03:44;1;1;
79537;PMS5003;68989;52.032;5.152;2023-08-06T14:06:10;3;2;
79537;PMS5003;68989;52.032;5.152;2023-08-06T14:08:37;2;2;
79537;PMS5003;68989;52.032;5.152;2023-08-06T14:11:05;3;2;
79537;PMS5003;68989;52.032;5.152;2023-08-06T14:13:32;3;2;
79537;PMS5003;68989;52.032;5.152;2023-08-06T14:15:59;2;2;
79537;PMS5003;68989;52.032;5.152;2023-08-06T14:18:26;2;1;
79537;PMS5003;68989;52.032;5.152;2023-08-06T14:20:53;3;3;
79537;PMS5003;68989;52.032;5.152;2023-08-06T14:23:20;2;2;
79537;PMS5003;68989;52.032;5.152;2023-08-06T14:25:47;2;2;
79537;PMS5003;68989;52.032;5.152;2023-08-06T14:28:14;1;1;
79537;PMS5003;68989;52.032;5.152;2023-08-06T14:30:41;1;1;
79537;PMS5003;68989;52.032;5.152;2023-08-06T14:33:08;2;2;
79537;PMS5003;68989;52.032;5.152;2023-08-06T14:35:35;3;3;
79537;PMS5003;68989;52.032;5.152;2023-08-06T14:38:01;5;3;
79537;PMS5003;68989;52.032;5.152;2023-08-06T14:40:28;2;2;
79537;PMS5003;68989;52.032;5.152;2023-08-06T14:42:56;2;2;
79537;PMS5003;68989;52.032;5.152;2023-08-06T14:45:22;2;2;
79537;PMS5003;68989;52.032;5.152;2023-08-06T14:47:49;1;1;
79537;PMS5003;68989;52.032;5.152;2023-08-06T14:50:16;0;0;
79537;PMS5003;68989;52.032;5.152;2023-08-06T14:52:42;1;1;
79537;PMS5003;68989;52.032;5.152;2023-08-06T14:55:09;1;1;
79537;PMS5003;68989;52.032;5.152;2023-08-06T14:57:36;0;0;
79537;PMS5003;68989;52.032;5.152;2023-08-06T15:00:03;0;0;
79537;PMS5003;68989;52.032;5.152;2023-08-06T15:02:31;1;1;
79537;PMS5003;68989;52.032;5.152;2023-08-06T15:04:58;1;1;
79537;PMS5003;68989;52.032;5.152;2023-08-06T15:07:25;1;0;
79537;PMS5003;68989;52.032;5.152;2023-08-06T15:09:51;0;0;
79537;PMS5003;68989;52.032;5.152;2023-08-06T15:12:18;0;0;
79537;PMS5003;68989;52.032;5.152;2023-08-06T15:14:45;1;1;
79537;PMS5003;68989;52.032;5.152;2023-08-06T15:17:12;2;2;
79537;PMS5003;68989;52.032;5.152;2023-08-06T15:19:38;0;0;
79537;PMS5003;68989;52.032;5.152;2023-08-06T15:22:05;1;1;
79537;PMS5003;68989;52.032;5.152;2023-08-06T15:24:32;2;2;
79537;PMS5003;68989;52.032;5.152;2023-08-06T15:26:59;1;1;
79537;PMS5003;68989;52.032;5.152;2023-08-06T15:29:26;1;1;
79537;PMS5003;68989;52.032;5.152;2023-08-06T15:31:54;3;3;
79537;PMS5003;68989;52.032;5.152;2023-08-06T15:34:21;0;0;
79537;PMS5003;68989;52.032;5.152;2023-08-06T15:36:47;0;0;
79537;PMS5003;68989;52.032;5.152;2023-08-06T15:39:14;1;1;
79537;PMS5003;68989;52.032;5.152;2023-08-06T15:41:41;1;1;
79537;PMS5003;68989;52.032;5.152;2023-08-06T15:44:08;2;2;
79537;PMS5003;68989;52.032;5.152;2023-08-06T15:46:35;0;0;
79537;PMS5003;68989;52.032;5.152;2023-08-06T15:49:03;1;0;
79537;PMS5003;68989;52.032;5.152;2023-08-06T15:51:29;2;1;
79537;PMS5003;68989;52.032;5.152;2023-08-06T15:53:56;2;1;
79537;PMS5003;68989;52.032;5.152;2023-08-06T15:56:23;0;0;
79537;PMS5003;68989;52.032;5.152;2023-08-06T15:58:50;1;1;
79537;PMS5003;68989;52.032;5.152;2023-08-06T16:01:17;0;0;
79537;PMS5003;68989;52.032;5.152;2023-08-06T16:03:43;1;1;
79537;PMS5003;68989;52.032;5.152;2023-08-06T16:06:10;2;2;
79537;PMS5003;68989;52.032;5.152;2023-08-06T16:08:37;1;1;
79537;PMS5003;68989;52.032;5.152;2023-08-06T16:11:04;2;2;
79537;PMS5003;68989;52.032;5.152;2023-08-06T16:13:31;3;1;
79537;PMS5003;68989;52.032;5.152;2023-08-06T16:15:58;1;1;
79537;PMS5003;68989;52.032;5.152;2023-08-06T16:18:25;1;1;
79537;PMS5003;68989;52.032;5.152;2023-08-06T16:20:52;1;1;
79537;PMS5003;68989;52.032;5.152;2023-08-06T16:23:19;2;2;
79537;PMS5003;68989;52.032;5.152;2023-08-06T16:25:46;4;2;
79537;PMS5003;68989;52.032;5.152;2023-08-06T16:28:13;3;2;
79537;PMS5003;68989;52.032;5.152;2023-08-06T16:30:43;7;1;
79537;PMS5003;68989;52.032;5.152;2023-08-06T16:33:10;1;1;
79537;PMS5003;68989;52.032;5.152;2023-08-06T16:35:37;0;0;
79537;PMS5003;68989;52.032;5.152;2023-08-06T16:38:04;1;1;
79537;PMS5003;68989;52.032;5.152;2023-08-06T16:40:31;0;0;
79537;PMS5003;68989;52.032;5.152;2023-08-06T16:42:58;2;2;
79537;PMS5003;68989;52.032;5.152;2023-08-06T16:45:25;2;2;
79537;PMS5003;68989;52.032;5.152;2023-08-06T16:47:52;1;1;
79537;PMS5003;68989;52.032;5.152;2023-08-06T16:50:19;1;1;